Time;durP1;ratioP1;P1;durP2;ratioP2;P2;SDS_P1;SDS_P2;PMS_P1;PMS_P2;Temp;Humidity;BMP_temperature;BMP_pressure;BME280_temperature;BME280_humidity;BME280_pressure;Samples;Min_cycle;Max_cycle;Signal;HPM_P1;HPM_P2
2024/02/10 00:00:43;;;;;;;18.97;11.90;;;;;;;;;;5098182;28;20407;-81
2024/02/10 00:03:10;;;;;;;18.67;11.03;;;;;;;;;;5115898;28;20945;-81
2024/02/10 00:05:36;;;;;;;17.80;11.37;;;;;;;;;;5116054;28;20390;-80
2024/02/10 00:08:02;;;;;;;17.33;11.33;;;;;;;;;;5115498;28;20952;-81
2024/02/10 00:10:29;;;;;;;16.80;10.43;;;;;;;;;;5115584;28;20428;-82
2024/02/10 00:12:57;;;;;;;17.90;10.73;;;;;;;;;;5097368;28;20466;-83
2024/02/10 00:15:23;;;;;;;18.77;12.13;;;;;;;;;;5115326;28;20414;-83
2024/02/10 00:17:49;;;;;;;19.37;11.80;;;;;;;;;;5113512;28;20434;-83
2024/02/10 00:20:15;;;;;;;19.70;12.63;;;;;;;;;;5117589;28;20426;-81
2024/02/10 00:22:46;;;;;;;17.60;11.87;;;;;;;;;;5120745;28;20398;-85
2024/02/10 00:25:12;;;;;;;18.77;11.83;;;;;;;;;;5097190;28;20427;-83
2024/02/10 00:27:39;;;;;;;17.60;11.70;;;;;;;;;;5113934;28;20437;-82
2024/02/10 00:30:06;;;;;;;20.80;12.37;;;;;;;;;;5115261;28;20471;-84
2024/02/10 00:32:33;;;;;;;21.93;11.30;;;;;;;;;;5095987;28;20481;-83
2024/02/10 00:34:58;;;;;;;17.57;12.03;;;;;;;;;;5114274;28;20409;-81
2024/02/10 00:37:24;;;;;;;19.23;13.60;;;;;;;;;;5114251;28;20495;-83
2024/02/10 00:39:54;;;;;;;19.60;12.67;;;;;;;;;;5114229;28;20845;-82
2024/02/10 00:42:28;;;;;;;17.20;10.83;;;;;;;;;;5113954;28;20418;-84
2024/02/10 00:44:56;;;;;;;23.07;13.10;;;;;;;;;;5114580;28;20419;-90
2024/02/10 00:47:22;;;;;;;18.00;10.97;;;;;;;;;;5114451;28;20466;-83
2024/02/10 00:49:48;;;;;;;20.37;12.23;;;;;;;;;;5113894;28;20904;-81
2024/02/10 00:52:18;;;;;;;16.10;11.23;;;;;;;;;;5113490;28;20459;-79
2024/02/10 00:54:45;;;;;;;16.53;12.50;;;;;;;;;;5113898;28;20423;-80
2024/02/10 00:57:11;;;;;;;18.87;10.20;;;;;;;;;;5113519;28;20885;-82
2024/02/10 00:59:41;;;;;;;17.27;11.07;;;;;;;;;;5113756;28;20403;-84
2024/02/10 01:02:10;;;;;;;17.07;12.23;;;;;;;;;;5113825;28;20910;-81
2024/02/10 01:04:36;;;;;;;18.33;11.30;;;;;;;;;;5113738;28;20403;-81
2024/02/10 01:07:02;;;;;;;17.77;11.40;;;;;;;;;;5095713;28;20501;-85
2024/02/10 01:09:31;;;;;;;17.07;10.73;;;;;;;;;;5113681;28;20745;-80
2024/02/10 01:11:56;;;;;;;17.53;11.90;;;;;;;;;;5113527;28;20459;-80
2024/02/10 01:14:29;;;;;;;20.07;12.83;;;;;;;;;;5113966;28;20447;-80
2024/02/10 01:16:55;;;;;;;22.43;13.47;;;;;;;;;;5115200;28;20418;-81
2024/02/10 01:19:21;;;;;;;27.57;14.43;;;;;;;;;;5095644;28;20431;-83
2024/02/10 01:21:47;;;;;;;26.87;16.00;;;;;;;;;;5113520;28;20826;-82
2024/02/10 01:24:20;;;;;;;21.87;14.90;;;;;;;;;;5113617;28;20412;-84
2024/02/10 01:26:46;;;;;;;21.67;14.17;;;;;;;;;;5112927;28;20404;-83
2024/02/10 01:29:12;;;;;;;23.77;15.47;;;;;;;;;;5113470;28;20498;-83
2024/02/10 01:31:41;;;;;;;21.80;14.80;;;;;;;;;;5095319;28;20420;-81
2024/02/10 01:34:08;;;;;;;21.97;14.63;;;;;;;;;;5113128;28;20829;-83
2024/02/10 01:36:35;;;;;;;20.17;13.03;;;;;;;;;;5113122;28;20892;-81
2024/02/10 01:39:01;;;;;;;19.50;12.80;;;;;;;;;;5113581;28;20451;-82
2024/02/10 01:41:30;;;;;;;23.07;13.47;;;;;;;;;;5113247;28;20414;-86
2024/02/10 01:43:56;;;;;;;19.33;12.83;;;;;;;;;;5094714;28;20774;-82
2024/02/10 01:46:22;;;;;;;20.73;13.43;;;;;;;;;;5113164;28;20463;-86
2024/02/10 01:48:55;;;;;;;21.73;13.27;;;;;;;;;;5113124;28;20506;-84
2024/02/10 01:51:23;;;;;;;20.27;13.17;;;;;;;;;;5113346;28;20422;-87
2024/02/10 01:53:50;;;;;;;19.90;12.33;;;;;;;;;;5112758;28;20836;-86
2024/02/10 01:56:16;;;;;;;23.10;12.73;;;;;;;;;;5113224;28;20910;-85
2024/02/10 01:58:44;;;;;;;20.23;13.27;;;;;;;;;;5112861;28;20439;-83
2024/02/10 02:01:10;;;;;;;19.80;11.53;;;;;;;;;;5113135;28;20897;-83
2024/02/10 02:03:36;;;;;;;19.20;12.63;;;;;;;;;;5112974;28;20414;-85
2024/02/10 02:06:02;;;;;;;16.97;11.43;;;;;;;;;;5113200;28;20499;-85
2024/02/10 02:08:29;;;;;;;16.10;11.70;;;;;;;;;;5113072;28;20455;-84
2024/02/10 02:10:54;;;;;;;18.30;13.10;;;;;;;;;;5113222;28;20415;-87
2024/02/10 02:13:22;;;;;;;19.10;12.00;;;;;;;;;;5112837;28;20805;-84
2024/02/10 02:15:48;;;;;;;19.30;12.23;;;;;;;;;;5113002;28;20405;-85
2024/02/10 02:18:14;;;;;;;21.63;11.87;;;;;;;;;;5094807;28;20417;-84
2024/02/10 02:20:46;;;;;;;15.77;12.30;;;;;;;;;;5094660;28;20417;-82
2024/02/10 02:23:14;;;;;;;21.07;12.67;;;;;;;;;;5094800;28;20466;-87
2024/02/10 02:25:40;;;;;;;20.80;13.80;;;;;;;;;;5113079;28;20415;-81
2024/02/10 02:28:06;;;;;;;21.10;12.67;;;;;;;;;;5112161;28;20423;-85
2024/02/10 02:30:35;;;;;;;18.73;12.10;;;;;;;;;;5112965;28;20502;-87
2024/02/10 02:33:01;;;;;;;20.50;12.83;;;;;;;;;;5112718;28;20525;-81
2024/02/10 02:35:27;;;;;;;17.57;12.00;;;;;;;;;;5114949;28;20951;-84
2024/02/10 02:37:55;;;;;;;22.50;11.17;;;;;;;;;;5116656;28;20899;-85
2024/02/10 02:40:21;;;;;;;16.43;11.50;;;;;;;;;;5098352;28;20420;-83
2024/02/10 02:42:47;;;;;;;19.80;12.53;;;;;;;;;;5116203;28;20507;-85
2024/02/10 02:45:13;;;;;;;17.57;11.70;;;;;;;;;;5116479;28;20460;-85
2024/02/10 02:47:39;;;;;;;17.53;11.33;;;;;;;;;;5116158;28;20573;-83
2024/02/10 02:50:09;;;;;;;18.70;11.97;;;;;;;;;;5116455;28;20395;-84
2024/02/10 02:52:37;;;;;;;23.33;13.37;;;;;;;;;;5116317;28;20463;-84
2024/02/10 02:55:04;;;;;;;19.93;13.43;;;;;;;;;;5116290;28;20763;-83
2024/02/10 02:57:31;;;;;;;20.07;12.93;;;;;;;;;;5115907;28;20447;-82
2024/02/10 02:59:57;;;;;;;19.50;12.80;;;;;;;;;;5116250;28;20404;-83
2024/02/10 03:02:23;;;;;;;20.47;12.63;;;;;;;;;;5116152;28;20407;-85
2024/02/10 03:04:49;;;;;;;21.60;12.70;;;;;;;;;;5116202;28;20407;-85
2024/02/10 03:07:21;;;;;;;22.63;12.90;;;;;;;;;;5097799;28;20419;-85
2024/02/10 03:09:48;;;;;;;25.57;14.23;;;;;;;;;;5116084;28;20767;-82
2024/02/10 03:12:14;;;;;;;16.07;10.97;;;;;;;;;;5115614;28;20455;-83
2024/02/10 03:14:41;;;;;;;19.27;12.93;;;;;;;;;;5116012;28;20448;-85
2024/02/10 03:17:08;;;;;;;17.80;11.93;;;;;;;;;;5115913;28;20413;-82
2024/02/10 03:19:37;;;;;;;17.73;11.17;;;;;;;;;;5115836;28;20421;-82
2024/02/10 03:22:04;;;;;;;21.20;13.60;;;;;;;;;;5097398;28;20411;-84
2024/02/10 03:24:33;;;;;;;17.57;11.00;;;;;;;;;;5115765;28;20434;-83
2024/02/10 03:27:00;;;;;;;21.43;13.03;;;;;;;;;;5095919;28;20407;-82
2024/02/10 03:29:26;;;;;;;21.67;13.40;;;;;;;;;;5094013;28;20416;-85
2024/02/10 03:31:52;;;;;;;20.97;14.23;;;;;;;;;;5095148;28;20524;-83
2024/02/10 03:34:18;;;;;;;23.93;13.50;;;;;;;;;;5095079;28;20412;-83
2024/02/10 03:36:44;;;;;;;23.13;13.60;;;;;;;;;;5095066;28;20397;-84
2024/02/10 03:39:10;;;;;;;23.90;15.10;;;;;;;;;;5095031;28;20462;-84
2024/02/10 03:41:36;;;;;;;25.83;15.00;;;;;;;;;;5094665;28;20404;-84
2024/02/10 03:44:02;;;;;;;24.03;14.60;;;;;;;;;;5093749;28;20975;-83
2024/02/10 03:46:30;;;;;;;25.07;14.33;;;;;;;;;;5093887;28;20511;-82
2024/02/10 03:48:58;;;;;;;22.33;15.60;;;;;;;;;;5094943;28;20408;-84
2024/02/10 03:51:24;;;;;;;21.97;12.50;;;;;;;;;;5093257;28;20469;-83
2024/02/10 03:53:51;;;;;;;20.20;12.47;;;;;;;;;;5094747;28;20554;-81
2024/02/10 03:56:17;;;;;;;20.17;13.23;;;;;;;;;;5094408;28;20415;-83
2024/02/10 03:58:43;;;;;;;22.90;13.53;;;;;;;;;;5094659;28;20888;-83
2024/02/10 04:01:13;;;;;;;19.60;13.87;;;;;;;;;;5093451;28;20512;-86
2024/02/10 04:03:39;;;;;;;23.90;13.23;;;;;;;;;;5094593;28;20424;-85
2024/02/10 04:06:06;;;;;;;21.10;13.87;;;;;;;;;;5094597;28;20417;-85
2024/02/10 04:08:34;;;;;;;20.00;13.27;;;;;;;;;;5093235;28;20972;-85
2024/02/10 04:11:05;;;;;;;23.90;15.23;;;;;;;;;;5094546;28;20775;-85
2024/02/10 04:13:31;;;;;;;27.17;15.13;;;;;;;;;;5093943;28;20609;-83
2024/02/10 04:16:01;;;;;;;21.07;14.50;;;;;;;;;;5094139;28;20413;-81
2024/02/10 04:18:28;;;;;;;23.47;14.33;;;;;;;;;;5094279;28;20413;-82
2024/02/10 04:20:54;;;;;;;26.30;15.60;;;;;;;;;;5094246;28;20407;-82
2024/02/10 04:23:21;;;;;;;28.07;16.10;;;;;;;;;;5094198;28;20973;-83
2024/02/10 04:25:46;;;;;;;25.53;15.77;;;;;;;;;;5094121;28;20408;-82
2024/02/10 04:28:12;;;;;;;26.60;17.07;;;;;;;;;;5093642;28;20903;-82
2024/02/10 04:30:40;;;;;;;23.47;14.50;;;;;;;;;;5093991;28;20414;-83
2024/02/10 04:33:06;;;;;;;25.90;14.30;;;;;;;;;;5092839;28;20465;-82
2024/02/10 04:35:32;;;;;;;26.90;15.37;;;;;;;;;;5094017;28;20404;-83
2024/02/10 04:38:00;;;;;;;26.27;15.67;;;;;;;;;;5093929;28;20421;-82
2024/02/10 04:40:26;;;;;;;26.90;15.00;;;;;;;;;;5093783;28;20415;-83
2024/02/10 04:42:53;;;;;;;27.77;16.10;;;;;;;;;;5093458;28;20414;-82
2024/02/10 04:45:37;;;;;;;24.30;14.30;;;;;;;;;;5092526;28;20420;-83
2024/02/10 04:48:04;;;;;;;23.57;15.07;;;;;;;;;;5093682;28;20472;-82
2024/02/10 04:50:30;;;;;;;26.33;16.03;;;;;;;;;;5093684;28;20777;-82
2024/02/10 04:52:56;;;;;;;26.83;16.57;;;;;;;;;;5093606;28;20481;-82
2024/02/10 04:55:23;;;;;;;24.40;15.27;;;;;;;;;;5093621;28;20428;-82
2024/02/10 04:57:49;;;;;;;26.70;14.70;;;;;;;;;;5092632;28;20506;-82
2024/02/10 05:00:16;;;;;;;25.33;14.90;;;;;;;;;;5091907;28;20448;-82
2024/02/10 05:02:45;;;;;;;27.10;16.00;;;;;;;;;;5092119;28;20930;-82
2024/02/10 05:05:12;;;;;;;29.10;16.60;;;;;;;;;;5093353;28;20421;-82
2024/02/10 05:07:45;;;;;;;28.50;15.97;;;;;;;;;;5093396;28;20408;-82
2024/02/10 05:10:11;;;;;;;25.17;15.90;;;;;;;;;;5093546;28;20400;-82
2024/02/10 05:12:41;;;;;;;23.20;14.20;;;;;;;;;;5095108;28;20468;-81
2024/02/10 05:15:10;;;;;;;22.90;15.00;;;;;;;;;;5103390;28;20411;-82
2024/02/10 05:17:40;;;;;;;22.90;13.80;;;;;;;;;;5092052;28;20415;-83
2024/02/10 05:20:12;;;;;;;27.07;14.70;;;;;;;;;;5093367;28;20570;-83
2024/02/10 05:22:38;;;;;;;21.67;14.47;;;;;;;;;;5093432;28;20781;-82
2024/02/10 05:25:07;;;;;;;31.10;17.20;;;;;;;;;;5093272;28;20404;-83
2024/02/10 05:27:33;;;;;;;29.20;16.13;;;;;;;;;;5092855;28;20166;-83
2024/02/10 05:29:59;;;;;;;27.27;17.07;;;;;;;;;;5093212;28;20406;-82
2024/02/10 05:32:27;;;;;;;25.00;15.27;;;;;;;;;;5093101;28;20962;-83
2024/02/10 05:34:53;;;;;;;23.87;14.70;;;;;;;;;;5093145;28;20518;-85
2024/02/10 05:37:19;;;;;;;26.87;15.57;;;;;;;;;;5093068;28;20498;-81
2024/02/10 05:39:45;;;;;;;22.37;14.77;;;;;;;;;;5091787;28;20971;-86
2024/02/10 05:42:11;;;;;;;25.53;15.30;;;;;;;;;;5092603;28;20448;-81
2024/02/10 05:44:40;;;;;;;25.30;14.60;;;;;;;;;;5091818;28;20936;-86
2024/02/10 05:47:06;;;;;;;28.33;17.40;;;;;;;;;;5092828;28;20458;-86
2024/02/10 05:49:34;;;;;;;27.17;15.57;;;;;;;;;;5091766;28;20523;-83
2024/02/10 05:52:00;;;;;;;26.57;15.50;;;;;;;;;;5091662;28;20472;-82
2024/02/10 05:54:29;;;;;;;30.37;16.90;;;;;;;;;;5091637;28;20786;-83
2024/02/10 05:56:55;;;;;;;27.43;15.33;;;;;;;;;;5092472;28;20552;-82
2024/02/10 05:59:21;;;;;;;25.83;16.30;;;;;;;;;;5091694;28;20421;-86
2024/02/10 06:01:47;;;;;;;31.90;15.80;;;;;;;;;;5092784;28;20405;-86
2024/02/10 06:04:13;;;;;;;31.47;16.17;;;;;;;;;;5092860;28;20410;-82
2024/02/10 06:06:45;;;;;;;23.07;15.90;;;;;;;;;;5092823;28;20410;-83
2024/02/10 06:09:13;;;;;;;30.13;16.33;;;;;;;;;;5092882;28;20448;-82
2024/02/10 06:11:39;;;;;;;27.43;16.23;;;;;;;;;;5096248;28;20401;-83
2024/02/10 06:14:08;;;;;;;26.37;14.77;;;;;;;;;;5096728;28;20841;-85
2024/02/10 06:16:35;;;;;;;22.27;15.80;;;;;;;;;;5096769;28;20771;-83
2024/02/10 06:19:01;;;;;;;24.57;15.17;;;;;;;;;;5096618;28;20418;-86
2024/02/10 06:21:27;;;;;;;24.60;13.67;;;;;;;;;;5095283;28;20467;-85
2024/02/10 06:23:53;;;;;;;25.80;15.70;;;;;;;;;;5096529;28;20531;-85
2024/02/10 06:26:19;;;;;;;22.63;14.83;;;;;;;;;;5096158;28;20811;-86
2024/02/10 06:28:49;;;;;;;20.60;14.33;;;;;;;;;;5096434;28;20175;-85
2024/02/10 06:31:18;;;;;;;24.50;16.10;;;;;;;;;;5096417;28;20416;-85
2024/02/10 06:33:46;;;;;;;23.00;14.27;;;;;;;;;;5096180;28;20826;-85
2024/02/10 06:36:15;;;;;;;25.93;13.83;;;;;;;;;;5096340;28;20419;-83
2024/02/10 06:38:42;;;;;;;25.40;14.40;;;;;;;;;;5096278;28;20423;-82
2024/02/10 06:41:08;;;;;;;22.13;13.17;;;;;;;;;;5095679;28;20406;-86
2024/02/10 06:43:35;;;;;;;21.70;13.53;;;;;;;;;;5096018;28;20428;-84
2024/02/10 06:46:05;;;;;;;22.20;13.40;;;;;;;;;;5095858;28;20556;-83
2024/02/10 06:48:31;;;;;;;24.10;15.40;;;;;;;;;;5096108;28;20417;-85
2024/02/10 06:50:58;;;;;;;23.60;14.10;;;;;;;;;;5095934;28;20421;-85
2024/02/10 06:53:24;;;;;;;21.13;13.13;;;;;;;;;;5095820;28;20529;-82
2024/02/10 06:55:50;;;;;;;24.57;15.70;;;;;;;;;;5095638;28;20409;-86
2024/02/10 06:58:17;;;;;;;26.00;15.90;;;;;;;;;;5095866;28;20419;-87
2024/02/10 07:00:43;;;;;;;24.00;14.30;;;;;;;;;;5094840;28;20508;-86
2024/02/10 07:03:09;;;;;;;18.57;11.90;;;;;;;;;;5095892;28;20412;-84
2024/02/10 07:05:37;;;;;;;20.93;13.20;;;;;;;;;;5095494;28;20411;-85
2024/02/10 07:08:05;;;;;;;27.50;15.30;;;;;;;;;;5095582;28;20421;-84
2024/02/10 07:10:31;;;;;;;24.97;13.90;;;;;;;;;;5095530;28;20446;-84
2024/02/10 07:12:57;;;;;;;23.30;13.73;;;;;;;;;;5095038;28;20865;-85
2024/02/10 07:15:24;;;;;;;21.03;12.90;;;;;;;;;;5095421;28;20896;-84
2024/02/10 07:17:52;;;;;;;23.20;13.13;;;;;;;;;;5095601;28;20485;-83
2024/02/10 07:20:20;;;;;;;21.77;13.27;;;;;;;;;;5095888;28;20401;-86
2024/02/10 07:22:49;;;;;;;23.40;14.40;;;;;;;;;;5095314;28;20428;-85
2024/02/10 07:25:15;;;;;;;23.13;14.57;;;;;;;;;;5095986;28;20513;-86
2024/02/10 07:27:41;;;;;;;20.40;13.03;;;;;;;;;;5096316;28;20421;-85
2024/02/10 07:30:10;;;;;;;20.20;13.67;;;;;;;;;;5097418;28;20425;-84
2024/02/10 07:32:36;;;;;;;22.10;14.07;;;;;;;;;;5094937;28;20476;-81
2024/02/10 07:35:04;;;;;;;21.70;13.27;;;;;;;;;;5095143;28;20434;-83
2024/02/10 07:37:31;;;;;;;26.93;15.63;;;;;;;;;;5093969;28;20449;-84
2024/02/10 07:39:57;;;;;;;21.67;13.83;;;;;;;;;;5095161;28;20888;-84
2024/02/10 07:42:23;;;;;;;25.97;14.50;;;;;;;;;;5094687;28;20419;-81
2024/02/10 07:44:50;;;;;;;26.37;13.93;;;;;;;;;;5094916;28;20424;-81
2024/02/10 07:47:19;;;;;;;23.83;14.87;;;;;;;;;;5094859;28;20475;-82
2024/02/10 07:49:48;;;;;;;22.53;13.37;;;;;;;;;;5094858;28;20413;-82
2024/02/10 07:52:14;;;;;;;22.07;13.60;;;;;;;;;;5094698;28;20460;-81
2024/02/10 07:54:41;;;;;;;25.10;14.77;;;;;;;;;;5094743;28;20450;-81
2024/02/10 07:57:11;;;;;;;20.80;13.00;;;;;;;;;;5093097;28;20924;-82
2024/02/10 07:59:38;;;;;;;20.07;13.03;;;;;;;;;;5094615;28;20500;-81
2024/02/10 08:02:04;;;;;;;22.23;13.27;;;;;;;;;;5094594;28;20673;-81
2024/02/10 08:04:30;;;;;;;23.37;13.93;;;;;;;;;;5094577;28;20409;-80
2024/02/10 08:06:56;;;;;;;21.30;13.93;;;;;;;;;;5094506;28;20410;-81
2024/02/10 08:09:23;;;;;;;24.93;13.90;;;;;;;;;;5094392;28;20886;-82
2024/02/10 08:11:50;;;;;;;25.93;13.93;;;;;;;;;;5093902;28;20432;-81
2024/02/10 08:14:20;;;;;;;18.90;12.53;;;;;;;;;;5094382;28;20414;-83
2024/02/10 08:16:49;;;;;;;23.20;15.57;;;;;;;;;;5094393;28;20434;-82
2024/02/10 08:19:18;;;;;;;24.43;14.37;;;;;;;;;;5094311;28;20811;-82
2024/02/10 08:21:44;;;;;;;22.70;14.00;;;;;;;;;;5094102;28;20496;-82
2024/02/10 08:24:11;;;;;;;26.67;14.67;;;;;;;;;;5092951;28;20794;-84
2024/02/10 08:26:37;;;;;;;28.07;15.37;;;;;;;;;;5093779;28;20416;-83
2024/02/10 08:29:03;;;;;;;24.37;14.10;;;;;;;;;;5095720;28;20421;-82
2024/02/10 08:31:34;;;;;;;23.33;15.00;;;;;;;;;;5093986;28;20409;-84
2024/02/10 08:34:00;;;;;;;22.87;14.40;;;;;;;;;;5093673;28;20472;-88
2024/02/10 08:36:28;;;;;;;26.73;14.07;;;;;;;;;;5093970;28;20443;-85
2024/02/10 08:38:56;;;;;;;27.07;14.50;;;;;;;;;;5094476;28;20405;-85
2024/02/10 08:41:22;;;;;;;25.27;15.60;;;;;;;;;;5093510;28;20409;-83
2024/02/10 08:43:48;;;;;;;23.73;14.40;;;;;;;;;;5092449;28;20423;-85
2024/02/10 08:46:19;;;;;;;24.53;13.73;;;;;;;;;;5092276;28;20472;-86
2024/02/10 08:48:47;;;;;;;27.07;16.40;;;;;;;;;;5092523;28;20417;-85
2024/02/10 08:51:13;;;;;;;27.33;15.13;;;;;;;;;;5092505;28;20409;-83
2024/02/10 08:53:42;;;;;;;26.27;16.43;;;;;;;;;;5093564;28;20476;-85
2024/02/10 08:56:11;;;;;;;23.07;13.87;;;;;;;;;;5093274;28;20406;-86
2024/02/10 08:58:39;;;;;;;32.23;16.80;;;;;;;;;;5093647;28;20532;-82
2024/02/10 09:01:15;;;;;;;27.13;15.37;;;;;;;;;;5093441;28;20413;-83
2024/02/10 09:03:52;;;;;;;29.33;16.50;;;;;;;;;;5093543;28;20403;-84
2024/02/10 09:06:22;;;;;;;31.97;16.47;;;;;;;;;;5093427;28;20426;-82
2024/02/10 09:08:50;;;;;;;26.00;16.57;;;;;;;;;;5093483;28;20408;-85
2024/02/10 09:11:16;;;;;;;29.03;16.00;;;;;;;;;;5092185;28;20416;-82
2024/02/10 09:13:44;;;;;;;29.60;16.30;;;;;;;;;;5093262;28;20468;-86
2024/02/10 09:16:10;;;;;;;30.33;16.00;;;;;;;;;;5093469;28;20409;-86
2024/02/10 09:18:36;;;;;;;27.20;16.00;;;;;;;;;;5093269;28;20766;-87
2024/02/10 09:21:02;;;;;;;28.87;16.30;;;;;;;;;;5093299;28;20413;-85
2024/02/10 09:23:29;;;;;;;35.00;17.87;;;;;;;;;;5093263;28;20409;-87
2024/02/10 09:25:55;;;;;;;23.83;15.70;;;;;;;;;;5092980;28;20413;-84
2024/02/10 09:28:24;;;;;;;33.63;16.60;;;;;;;;;;5093173;28;20409;-83
2024/02/10 09:30:50;;;;;;;26.60;14.83;;;;;;;;;;5093229;28;20423;-87
2024/02/10 09:33:20;;;;;;;29.03;16.03;;;;;;;;;;5093011;28;20985;-86
2024/02/10 09:35:48;;;;;;;32.30;17.23;;;;;;;;;;5093196;28;20975;-82
2024/02/10 09:38:14;;;;;;;33.70;17.17;;;;;;;;;;5093008;28;20418;-81
2024/02/10 09:40:40;;;;;;;31.90;17.63;;;;;;;;;;5092727;28;20955;-84
2024/02/10 09:43:09;;;;;;;29.80;17.40;;;;;;;;;;5093118;28;21270;-83
2024/02/10 09:45:35;;;;;;;33.93;18.50;;;;;;;;;;5095516;28;20418;-87
2024/02/10 09:48:02;;;;;;;24.80;15.57;;;;;;;;;;5095832;28;20476;-88
2024/02/10 09:50:31;;;;;;;25.67;15.50;;;;;;;;;;5097248;28;20429;-85
2024/02/10 09:52:57;;;;;;;30.33;16.70;;;;;;;;;;5097262;28;20482;-83
2024/02/10 09:55:23;;;;;;;33.57;17.10;;;;;;;;;;5096661;28;20904;-85
2024/02/10 09:57:52;;;;;;;25.97;15.90;;;;;;;;;;5097087;28;20411;-84
2024/02/10 10:00:21;;;;;;;26.03;16.27;;;;;;;;;;5097053;28;20413;-83
2024/02/10 10:02:49;;;;;;;31.07;16.40;;;;;;;;;;5104698;28;20762;-83
2024/02/10 10:05:17;;;;;;;25.73;15.37;;;;;;;;;;5097360;28;20413;-86
2024/02/10 10:07:45;;;;;;;28.87;16.10;;;;;;;;;;5097042;28;20412;-82
2024/02/10 10:10:10;;;;;;;23.87;14.33;;;;;;;;;;5096631;28;20740;-79
2024/02/10 10:12:36;;;;;;;24.00;13.87;;;;;;;;;;5096395;28;20459;-85
2024/02/10 10:15:04;;;;;;;26.97;14.20;;;;;;;;;;5112487;28;20504;-81
2024/02/10 10:17:36;;;;;;;21.27;13.50;;;;;;;;;;5117098;28;20168;-79
2024/02/10 10:20:09;;;;;;;28.53;14.43;;;;;;;;;;5117079;28;20988;-82
2024/02/10 10:22:38;;;;;;;26.23;15.73;;;;;;;;;;5098457;28;20414;-84
2024/02/10 10:25:05;;;;;;;24.37;14.67;;;;;;;;;;5098539;28;20416;-84
2024/02/10 10:27:31;;;;;;;25.00;14.73;;;;;;;;;;5098335;28;21079;-80
2024/02/10 10:29:57;;;;;;;22.90;12.20;;;;;;;;;;5116840;28;20404;-87
2024/02/10 10:32:24;;;;;;;21.37;12.70;;;;;;;;;;5098323;28;20481;-82
2024/02/10 10:34:55;;;;;;;25.20;14.70;;;;;;;;;;5116433;28;20511;-83
2024/02/10 10:37:22;;;;;;;23.20;14.50;;;;;;;;;;5116698;28;20496;-79
2024/02/10 10:39:49;;;;;;;20.00;13.00;;;;;;;;;;5116575;28;20403;-81
2024/02/10 10:42:16;;;;;;;24.77;15.40;;;;;;;;;;5097910;28;20408;-85
2024/02/10 10:44:42;;;;;;;20.40;12.90;;;;;;;;;;5116427;28;20499;-84
2024/02/10 10:47:10;;;;;;;18.43;11.93;;;;;;;;;;5116320;28;20453;-80
2024/02/10 10:49:36;;;;;;;19.77;12.23;;;;;;;;;;5116330;28;20766;-82
2024/02/10 10:52:05;;;;;;;22.73;12.27;;;;;;;;;;5115147;28;20843;-86
2024/02/10 10:54:37;;;;;;;18.73;12.33;;;;;;;;;;5116480;28;20837;-86
2024/02/10 10:57:07;;;;;;;21.20;13.37;;;;;;;;;;5097984;28;20403;-87
2024/02/10 10:59:35;;;;;;;18.40;11.83;;;;;;;;;;5097881;28;20428;-85
2024/02/10 11:02:02;;;;;;;20.70;12.90;;;;;;;;;;5116276;28;20404;-86
2024/02/10 11:04:34;;;;;;;20.60;12.07;;;;;;;;;;5116204;28;20429;-84
2024/02/10 11:07:08;;;;;;;19.90;12.60;;;;;;;;;;5097928;28;20923;-84
2024/02/10 11:09:43;;;;;;;18.33;12.00;;;;;;;;;;5115863;28;20426;-84
2024/02/10 11:12:12;;;;;;;20.40;12.33;;;;;;;;;;5115513;28;20458;-85
2024/02/10 11:14:48;;;;;;;20.60;13.07;;;;;;;;;;5097720;28;20527;-83
2024/02/10 11:17:16;;;;;;;18.10;11.37;;;;;;;;;;5097889;28;20494;-81
2024/02/10 11:19:42;;;;;;;20.27;12.37;;;;;;;;;;5115822;28;20740;-78
2024/02/10 11:22:10;;;;;;;18.83;12.33;;;;;;;;;;5115655;28;20447;-86
2024/02/10 11:24:44;;;;;;;16.73;10.87;;;;;;;;;;5115622;28;20412;-81
2024/02/10 11:27:14;;;;;;;19.43;12.20;;;;;;;;;;5115130;28;20405;-81
2024/02/10 11:29:40;;;;;;;21.23;12.03;;;;;;;;;;5115577;28;20420;-79
2024/02/10 11:32:07;;;;;;;20.97;12.17;;;;;;;;;;5115376;28;20496;-85
2024/02/10 11:34:36;;;;;;;18.83;11.10;;;;;;;;;;5115374;28;20437;-80
2024/02/10 11:37:02;;;;;;;20.57;13.83;;;;;;;;;;5097227;28;20411;-80
2024/02/10 11:39:29;;;;;;;24.60;14.60;;;;;;;;;;5097260;28;20430;-81
2024/02/10 11:41:56;;;;;;;24.60;13.77;;;;;;;;;;5115079;28;20451;-80
2024/02/10 11:44:26;;;;;;;22.93;13.63;;;;;;;;;;5097143;28;20426;-82
2024/02/10 11:46:52;;;;;;;27.67;15.20;;;;;;;;;;5115104;28;20495;-83
2024/02/10 11:49:18;;;;;;;20.70;12.73;;;;;;;;;;5115381;28;20435;-79
2024/02/10 11:51:44;;;;;;;25.53;15.20;;;;;;;;;;5096883;28;20415;-83
2024/02/10 11:54:10;;;;;;;21.33;13.10;;;;;;;;;;5115089;28;20470;-82
2024/02/10 11:56:36;;;;;;;21.70;13.70;;;;;;;;;;5114719;28;20407;-85
2024/02/10 11:59:03;;;;;;;25.50;15.10;;;;;;;;;;5114977;28;20416;-84
2024/02/10 12:01:35;;;;;;;23.87;14.47;;;;;;;;;;5115181;28;20422;-79
2024/02/10 12:04:04;;;;;;;25.43;15.23;;;;;;;;;;5114911;28;20465;-82
2024/02/10 12:06:30;;;;;;;24.00;13.73;;;;;;;;;;5096589;28;20510;-84
2024/02/10 12:08:58;;;;;;;24.27;13.47;;;;;;;;;;5114229;28;20411;-80
2024/02/10 12:11:26;;;;;;;23.77;15.30;;;;;;;;;;5114363;28;20475;-80
2024/02/10 12:13:53;;;;;;;26.33;13.77;;;;;;;;;;5114648;28;20830;-84
2024/02/10 12:16:19;;;;;;;22.97;12.90;;;;;;;;;;5114792;28;20850;-82
2024/02/10 12:18:48;;;;;;;19.73;12.60;;;;;;;;;;5114680;28;20428;-80
2024/02/10 12:21:19;;;;;;;25.17;15.40;;;;;;;;;;5096411;28;20232;-79
2024/02/10 12:23:47;;;;;;;22.27;14.47;;;;;;;;;;5096556;28;20416;-84
2024/02/10 12:26:14;;;;;;;24.27;15.30;;;;;;;;;;5093832;28;20423;-80
2024/02/10 12:28:40;;;;;;;21.10;14.03;;;;;;;;;;5092812;28;20427;-81
2024/02/10 12:31:07;;;;;;;22.57;15.17;;;;;;;;;;5094199;28;20425;-84
2024/02/10 12:33:33;;;;;;;27.13;17.97;;;;;;;;;;5092678;28;20478;-80
2024/02/10 12:36:00;;;;;;;26.23;16.00;;;;;;;;;;5093868;28;20409;-83
2024/02/10 12:38:25;;;;;;;22.67;13.37;;;;;;;;;;5094028;28;20266;-81
2024/02/10 12:40:55;;;;;;;22.13;13.20;;;;;;;;;;5092215;28;20500;-81
2024/02/10 12:43:24;;;;;;;25.93;14.07;;;;;;;;;;5093805;28;20971;-82
2024/02/10 12:45:53;;;;;;;23.50;14.10;;;;;;;;;;5093617;28;20407;-80
2024/02/10 12:48:19;;;;;;;21.50;13.10;;;;;;;;;;5093811;28;20904;-83
2024/02/10 12:50:49;;;;;;;20.77;12.90;;;;;;;;;;5093752;28;20425;-81
2024/02/10 12:53:15;;;;;;;25.47;15.30;;;;;;;;;;5092358;28;20479;-82
2024/02/10 12:55:42;;;;;;;23.70;13.80;;;;;;;;;;5092011;28;20415;-81
2024/02/10 12:58:08;;;;;;;23.73;15.20;;;;;;;;;;5093874;28;20494;-80
2024/02/10 13:00:34;;;;;;;22.80;12.57;;;;;;;;;;5093619;28;20558;-82
2024/02/10 13:03:00;;;;;;;22.27;13.50;;;;;;;;;;5093470;28;20468;-80
2024/02/10 13:05:27;;;;;;;21.30;12.53;;;;;;;;;;5093316;28;20441;-81
2024/02/10 13:07:53;;;;;;;27.10;14.80;;;;;;;;;;5093489;28;20419;-79
2024/02/10 13:10:19;;;;;;;26.17;14.70;;;;;;;;;;5093221;28;20409;-80
2024/02/10 13:12:48;;;;;;;23.03;13.70;;;;;;;;;;5093332;28;20471;-79
2024/02/10 13:15:14;;;;;;;22.00;12.47;;;;;;;;;;5093460;28;21007;-81
2024/02/10 13:17:40;;;;;;;21.93;13.63;;;;;;;;;;5093363;28;20869;-83
2024/02/10 13:20:06;;;;;;;19.77;12.57;;;;;;;;;;5092360;28;20420;-80
2024/02/10 13:22:32;;;;;;;27.23;14.27;;;;;;;;;;5092051;28;20308;-82
2024/02/10 13:25:00;;;;;;;24.27;13.53;;;;;;;;;;5094048;28;20470;-86
2024/02/10 13:27:26;;;;;;;24.40;13.87;;;;;;;;;;5094174;28;20396;-87
2024/02/10 13:29:52;;;;;;;25.03;12.73;;;;;;;;;;5094953;28;20408;-85
2024/02/10 13:32:23;;;;;;;24.90;13.90;;;;;;;;;;5095235;28;20506;-86
2024/02/10 13:34:50;;;;;;;24.67;15.17;;;;;;;;;;5095153;28;20404;-86
2024/02/10 14:01:25;;;;;;;18.17;11.10;;;;;;;;;;5093493;28;20444;-81
2024/02/10 14:04:06;;;;;;;17.23;11.77;;;;;;;;;;5094571;28;20428;-81
2024/02/10 14:06:34;;;;;;;15.30;9.73;;;;;;;;;;5094787;28;20496;-82
2024/02/10 14:09:03;;;;;;;16.23;9.37;;;;;;;;;;5093977;28;20403;-84
2024/02/10 14:11:32;;;;;;;17.07;10.07;;;;;;;;;;5091421;28;20941;-87
2024/02/10 14:13:59;;;;;;;16.77;10.87;;;;;;;;;;5091808;28;20478;-86
2024/02/10 14:16:30;;;;;;;13.27;8.60;;;;;;;;;;5092109;28;20415;-86
2024/02/10 14:19:01;;;;;;;13.27;8.47;;;;;;;;;;5093033;28;20404;-85
2024/02/10 14:21:37;;;;;;;15.30;9.60;;;;;;;;;;5093036;28;20412;-88
2024/02/10 14:24:09;;;;;;;16.93;11.77;;;;;;;;;;5091588;28;20471;-88
2024/02/10 14:26:41;;;;;;;13.07;8.00;;;;;;;;;;5092511;28;20423;-88
2024/02/10 14:29:19;;;;;;;11.80;6.90;;;;;;;;;;5093241;28;20412;-86
2024/02/10 14:31:51;;;;;;;14.27;6.97;;;;;;;;;;5102440;28;20401;-78
2024/02/10 14:34:36;;;;;;;16.00;8.50;;;;;;;;;;5116329;28;20550;-82
2024/02/10 14:37:26;;;;;;;16.97;9.57;;;;;;;;;;5098820;28;20426;-85
2024/02/10 14:39:48;;;;;;;13.67;8.43;;;;;;;;;;5099661;28;20430;-87
2024/02/10 14:42:17;;;;;;;12.73;8.67;;;;;;;;;;5101855;28;20495;-90
2024/02/10 14:44:50;;;;;;;13.70;8.90;;;;;;;;;;5099754;28;20415;-87